Time;durP1;ratioP1;P1;durP2;ratioP2;P2;SDS_P1;SDS_P2;PMS_P1;PMS_P2;Temp;Humidity;BMP_temperature;BMP_pressure;BME280_temperature;BME280_humidity;BME280_pressure;Samples;Min_cycle;Max_cycle;Signal;HPM_P1;HPM_P2
2021/07/01 00:00:55;;;;;;;1.00;0.60;;;;;;;8.94;100.00;93048.09;2107011;28;20024;-86
2021/07/01 00:02:00;;;;;;;0.63;0.63;;;;;;;8.96;100.00;93047.72;2098695;28;20029;-85
2021/07/01 00:03:01;;;;;;;0.75;0.75;;;;;;;8.93;100.00;93049.28;2099303;28;20481;-87
2021/07/01 00:04:02;;;;;;;0.80;0.80;;;;;;;9.02;100.00;93048.75;2090421;28;20555;-87
2021/07/01 00:05:06;;;;;;;0.70;0.70;;;;;;;8.99;100.00;93047.63;2098904;28;20025;-86
2021/07/01 00:06:07;;;;;;;0.70;0.70;;;;;;;9.05;100.00;93045.28;2106678;28;20543;-87
2021/07/01 00:07:07;;;;;;;0.77;0.70;;;;;;;9.02;100.00;93056.75;2090343;28;20055;-88
2021/07/01 00:08:08;;;;;;;2.80;0.70;;;;;;;9.07;100.00;93048.28;2090404;28;20095;-85
2021/07/01 00:09:17;;;;;;;0.63;0.63;;;;;;;9.06;100.00;93046.78;2098716;28;20444;-87
2021/07/01 00:10:24;;;;;;;0.93;0.80;;;;;;;9.01;100.00;93048.00;2092409;28;20133;-86
2021/07/01 00:11:26;;;;;;;0.73;0.73;;;;;;;8.95;100.00;93049.59;2107825;28;20024;-87
2021/07/01 00:12:26;;;;;;;0.70;0.70;;;;;;;9.02;100.00;93049.50;2098553;28;20020;-87
2021/07/01 00:13:27;;;;;;;0.60;0.60;;;;;;;9.08;100.00;93050.53;2098697;28;20044;-85
2021/07/01 00:14:28;;;;;;;1.10;0.77;;;;;;;9.02;100.00;93046.09;2090127;28;20091;-88
2021/07/01 00:15:31;;;;;;;0.60;0.60;;;;;;;8.85;100.00;93052.47;2090267;28;20028;-86
2021/07/01 00:16:31;;;;;;;1.20;0.80;;;;;;;8.94;100.00;93050.03;2106920;28;20028;-87
2021/07/01 00:17:33;;;;;;;0.70;0.70;;;;;;;8.97;100.00;93044.63;2098576;28;20028;-87
2021/07/01 00:18:34;;;;;;;0.85;0.80;;;;;;;8.96;100.00;93045.81;2090187;28;20032;-86
2021/07/01 00:19:35;;;;;;;2.38;0.80;;;;;;;8.96;100.00;93051.13;2090275;28;20020;-85
2021/07/01 00:20:36;;;;;;;0.80;0.80;;;;;;;8.95;100.00;93048.84;2098680;28;20032;-85
2021/07/01 00:21:37;;;;;;;1.15;0.80;;;;;;;8.94;100.00;93052.69;2113009;28;20032;-87
2021/07/01 00:22:38;;;;;;;0.60;0.60;;;;;;;8.88;100.00;93043.66;2098235;28;20025;-87
2021/07/01 00:23:39;;;;;;;0.90;0.70;;;;;;;8.99;100.00;93042.31;2090202;28;20091;-86
2021/07/01 00:24:42;;;;;;;0.70;0.70;;;;;;;8.99;100.00;93047.63;2090068;28;20112;-84
2021/07/01 00:25:45;;;;;;;0.73;0.73;;;;;;;8.92;100.00;93053.09;2098826;28;20537;-87
2021/07/01 00:26:46;;;;;;;0.73;0.73;;;;;;;8.88;100.00;93049.75;2106964;28;20031;-85
2021/07/01 00:27:47;;;;;;;2.17;0.85;;;;;;;8.89;100.00;93050.50;2098587;28;20051;-86
2021/07/01 00:28:47;;;;;;;0.75;0.75;;;;;;;8.91;100.00;93048.94;2098564;28;20147;-86
2021/07/01 00:29:48;;;;;;;0.70;0.70;;;;;;;8.94;100.00;93048.09;2106699;28;20024;-88
2021/07/01 00:30:49;;;;;;;0.75;0.75;;;;;;;8.96;100.00;93047.72;2098520;28;20027;-84
2021/07/01 00:31:49;;;;;;;2.95;0.98;;;;;;;9.04;100.00;93046.41;2098151;28;20472;-86
2021/07/01 00:32:50;;;;;;;0.75;0.75;;;;;;;9.08;100.00;93047.88;2091194;28;20071;-86
2021/07/01 00:33:51;;;;;;;0.75;0.75;;;;;;;9.03;100.00;93045.66;2103771;28;20456;-87
2021/07/01 00:34:52;;;;;;;0.77;0.77;;;;;;;9.10;100.00;93044.06;2097347;28;20028;-87
2021/07/01 00:35:53;;;;;;;4.65;0.80;;;;;;;8.98;100.00;93046.13;2105669;28;20032;-87
2021/07/01 00:36:53;;;;;;;0.65;0.65;;;;;;;8.90;100.00;93050.06;2091001;28;20497;-88
2021/07/01 00:37:54;;;;;;;0.70;0.70;;;;;;;8.99;100.00;93042.31;2101629;28;20396;-86
2021/07/01 00:38:54;;;;;;;3.10;0.80;;;;;;;8.93;100.00;93048.53;2099957;28;20467;-87
2021/07/01 00:39:56;;;;;;;0.70;0.70;;;;;;;8.95;100.00;93046.94;2085956;28;20563;-87
2021/07/01 00:40:56;;;;;;;0.93;0.75;;;;;;;8.91;100.00;93048.16;2090149;28;20024;-89
2021/07/01 00:41:57;;;;;;;0.80;0.80;;;;;;;8.86;100.00;93044.06;2089993;28;20111;-88
2021/07/01 00:42:58;;;;;;;0.77;0.77;;;;;;;8.79;100.00;93046.84;2082902;28;20021;-87
2021/07/01 00:44:01;;;;;;;1.75;0.80;;;;;;;8.84;100.00;93041.06;2090138;28;20024;-88
2021/07/01 00:45:04;;;;;;;2.95;0.73;;;;;;;8.93;100.00;93037.88;2098232;28;20024;-88
2021/07/01 00:46:05;;;;;;;2.95;0.95;;;;;;;8.95;100.00;93038.94;2098651;28;20024;-87
2021/07/01 00:47:06;;;;;;;0.70;0.70;;;;;;;8.93;100.00;93035.19;2089882;28;20055;-86
2021/07/01 00:48:07;;;;;;;1.00;1.00;;;;;;;8.93;100.00;93035.94;2089671;28;20508;-86
2021/07/01 00:49:08;;;;;;;0.95;0.90;;;;;;;8.94;100.00;93044.69;2090245;28;20029;-87
2021/07/01 00:50:11;;;;;;;1.70;0.60;;;;;;;8.90;100.00;93033.34;2090217;28;20446;-88
2021/07/01 00:51:12;;;;;;;3.67;0.88;;;;;;;8.97;100.00;93038.56;2106757;28;20385;-88
2021/07/01 00:52:13;;;;;;;0.80;0.80;;;;;;;8.98;100.00;93040.06;2106796;28;20037;-88
2021/07/01 00:53:13;;;;;;;2.42;0.85;;;;;;;8.93;100.00;93035.19;2106633;28;20049;-86
2021/07/01 00:54:15;;;;;;;1.20;0.98;;;;;;;9.00;100.00;93040.38;2106629;28;20035;-88
2021/07/01 00:55:16;;;;;;;0.75;0.75;;;;;;;9.00;100.00;93037.72;2090037;28;20021;-87
2021/07/01 00:56:19;;;;;;;1.90;0.98;;;;;;;8.98;100.00;93040.06;2090005;28;20116;-87
2021/07/01 00:57:21;;;;;;;0.70;0.70;;;;;;;8.96;100.00;93051.13;2098714;28;20460;-86
2021/07/01 00:58:22;;;;;;;0.80;0.80;;;;;;;9.02;100.00;93048.75;2106639;28;20640;-89
2021/07/01 00:59:24;;;;;;;0.80;0.80;;;;;;;9.02;100.00;93036.16;2106140;28;20114;-87
2021/07/01 01:01:28;;;;;;;0.80;0.80;;;;;;;9.14;100.00;93034.09;2090784;28;20474;-84
2021/07/01 01:02:29;;;;;;;0.80;0.80;;;;;;;9.06;100.00;93028.13;2098268;28;20024;-87
2021/07/01 01:03:39;;;;;;;1.42;0.98;;;;;;;9.09;100.00;93040.63;2098087;28;20476;-86
2021/07/01 01:04:41;;;;;;;2.40;0.65;;;;;;;9.05;100.00;93038.03;2106663;28;20797;-88
2021/07/01 01:05:41;;;;;;;0.88;0.88;;;;;;;9.02;100.00;93038.09;2097976;28;20020;-86
2021/07/01 01:06:42;;;;;;;0.90;0.90;;;;;;;9.05;100.00;93031.94;2089634;28;20130;-87
2021/07/01 01:07:43;;;;;;;2.10;0.90;;;;;;;9.08;100.00;93031.88;2084854;28;20036;-86
2021/07/01 01:08:43;;;;;;;2.35;0.68;;;;;;;9.09;100.00;93029.97;2086803;28;20071;-88
2021/07/01 01:09:45;;;;;;;3.13;0.95;;;;;;;9.06;100.00;93031.53;2089940;28;20036;-88
2021/07/01 01:10:45;;;;;;;1.13;1.10;;;;;;;9.11;100.00;93037.56;2097996;28;20031;-85
2021/07/01 01:11:46;;;;;;;2.05;1.00;;;;;;;9.13;100.00;93043.22;2089901;28;20104;-87
2021/07/01 01:12:47;;;;;;;0.80;0.80;;;;;;;9.11;100.00;93037.56;2084276;28;20120;-89
2021/07/01 01:13:47;;;;;;;1.00;1.00;;;;;;;9.13;100.00;93037.88;2087322;28;20481;-88
2021/07/01 01:14:48;;;;;;;0.85;0.82;;;;;;;9.13;100.00;93038.66;2091849;28;20377;-87
2021/07/01 01:15:50;;;;;;;1.23;0.60;;;;;;;9.12;100.00;93037.13;2081531;28;20476;-87
2021/07/01 01:16:50;;;;;;;2.90;1.17;;;;;;;9.12;100.00;93039.81;2081396;28;20024;-88
2021/07/01 01:18:01;;;;;;;1.00;1.00;;;;;;;9.04;100.00;93043.75;2083554;28;20101;-86
2021/07/01 01:19:02;;;;;;;1.77;0.90;;;;;;;9.10;100.00;93044.06;2092108;28;20021;-88
2021/07/01 01:20:05;;;;;;;0.90;0.90;;;;;;;9.13;100.00;93041.34;2098150;28;20028;-87
2021/07/01 01:21:10;;;;;;;0.85;0.85;;;;;;;9.07;100.00;93040.28;2098211;28;20023;-87
2021/07/01 01:22:11;;;;;;;0.80;0.80;;;;;;;9.08;100.00;93037.19;2089791;28;20036;-87
2021/07/01 01:23:12;;;;;;;0.90;0.90;;;;;;;9.08;100.00;93039.88;2081218;28;20064;-85
2021/07/01 01:24:12;;;;;;;0.90;0.90;;;;;;;9.10;100.00;93047.47;2089880;28;20080;-86
2021/07/01 01:25:13;;;;;;;2.80;1.10;;;;;;;9.11;100.00;93037.56;2097940;28;20016;-89
2021/07/01 01:26:14;;;;;;;0.90;0.90;;;;;;;9.11;100.00;93037.56;2098004;28;20102;-87
2021/07/01 01:27:15;;;;;;;2.75;0.95;;;;;;;9.13;100.00;93041.34;2089738;28;20057;-85
2021/07/01 01:28:17;;;;;;;0.93;0.93;;;;;;;9.12;100.00;93033.72;2089641;28;20409;-85
2021/07/01 01:29:21;;;;;;;1.00;1.00;;;;;;;9.20;100.00;93037.78;2090159;28;20501;-86
2021/07/01 01:30:21;;;;;;;1.02;0.80;;;;;;;9.18;100.00;93032.09;2096132;28;20060;-86
2021/07/01 01:31:23;;;;;;;0.70;0.70;;;;;;;9.22;100.00;93030.09;2097961;28;20036;-86
2021/07/01 01:32:23;;;;;;;0.70;0.68;;;;;;;9.18;100.00;93035.53;2097678;28;20055;-87
2021/07/01 01:33:25;;;;;;;0.70;0.70;;;;;;;9.24;100.00;93027.81;2089657;28;20029;-86
2021/07/01 01:34:25;;;;;;;0.90;0.90;;;;;;;9.24;100.00;93030.47;2089637;28;20029;-85
2021/07/01 01:35:26;;;;;;;0.70;0.70;;;;;;;9.22;100.00;93030.09;2089495;28;20032;-86
2021/07/01 01:36:27;;;;;;;0.63;0.63;;;;;;;9.23;100.00;93031.63;2089681;28;20029;-86
2021/07/01 01:37:27;;;;;;;0.80;0.77;;;;;;;9.23;100.00;93032.38;2089729;28;20078;-86
2021/07/01 01:38:28;;;;;;;1.10;1.00;;;;;;;9.22;100.00;93030.09;2097792;28;20036;-87
2021/07/01 01:39:29;;;;;;;1.00;1.00;;;;;;;9.34;100.00;93024.91;2097813;28;20031;-87
2021/07/01 01:40:30;;;;;;;1.10;1.00;;;;;;;9.29;100.00;93028.06;2097902;28;20032;-86
2021/07/01 01:41:30;;;;;;;0.80;0.80;;;;;;;9.32;100.00;93029.19;2089570;28;20024;-87
2021/07/01 01:42:31;;;;;;;1.10;0.88;;;;;;;9.28;100.00;93029.25;2097674;28;20105;-87
2021/07/01 01:43:32;;;;;;;0.95;0.88;;;;;;;9.31;100.00;93023.09;2097797;28;20064;-86
2021/07/01 01:44:32;;;;;;;0.85;0.70;;;;;;;9.25;100.00;93024.72;2089738;28;20061;-87
2021/07/01 01:45:37;;;;;;;0.80;0.80;;;;;;;9.25;100.00;93034.63;2089622;28;20025;-87
2021/07/01 01:46:39;;;;;;;0.90;0.90;;;;;;;9.27;100.00;93021.66;2090629;28;20024;-87
2021/07/01 01:47:49;;;;;;;1.58;0.70;;;;;;;9.24;100.00;93028.53;2093505;28;20578;-88
2021/07/01 01:48:51;;;;;;;0.70;0.70;;;;;;;9.22;100.00;93025.56;2099617;28;20074;-88
2021/07/01 01:49:52;;;;;;;0.70;0.70;;;;;;;9.22;100.00;93019.44;2094405;28;20294;-87
2021/07/01 01:50:53;;;;;;;2.13;0.80;;;;;;;9.25;100.00;93027.38;2097793;28;20032;-88
2021/07/01 01:51:53;;;;;;;0.80;0.80;;;;;;;9.28;100.00;93020.50;2097912;28;20032;-87
2021/07/01 01:52:54;;;;;;;0.93;0.93;;;;;;;9.26;100.00;93028.91;2097850;28;20025;-88
2021/07/01 01:53:55;;;;;;;0.82;0.82;;;;;;;9.23;100.00;93028.97;2102063;28;20035;-86
2021/07/01 01:54:56;;;;;;;0.82;0.80;;;;;;;9.23;100.00;93026.31;2114388;27;20070;-87
2021/07/01 01:55:56;;;;;;;1.35;0.77;;;;;;;9.26;100.00;93022.78;2123242;27;20030;-87
2021/07/01 01:56:57;;;;;;;0.82;0.82;;;;;;;9.24;100.00;93020.53;2123773;27;20026;-88
2021/07/01 01:57:58;;;;;;;0.98;0.90;;;;;;;9.26;100.00;93022.78;2110019;28;20039;-88
2021/07/01 01:58:58;;;;;;;0.95;0.85;;;;;;;9.27;100.00;93025.06;2093701;28;20028;-86
2021/07/01 01:59:59;;;;;;;1.73;0.90;;;;;;;9.20;100.00;93024.44;2093040;28;20083;-87
2021/07/01 02:01:00;;;;;;;5.70;1.05;;;;;;;9.22;100.00;93024.78;2097877;28;20025;-87
2021/07/01 02:02:01;;;;;;;0.98;0.95;;;;;;;9.10;100.00;93026.16;2097688;28;20431;-87
2021/07/01 02:03:02;;;;;;;1.63;1.00;;;;;;;9.24;100.00;93019.78;2097836;28;20534;-87
2021/07/01 02:04:03;;;;;;;0.80;0.80;;;;;;;9.25;100.00;93023.97;2089597;28;20473;-87
2021/07/01 02:05:06;;;;;;;1.08;0.90;;;;;;;9.27;100.00;93024.31;2089587;28;20028;-86
2021/07/01 02:06:07;;;;;;;0.98;0.98;;;;;;;9.27;100.00;93022.41;2089758;28;20077;-89
2021/07/01 02:07:07;;;;;;;1.10;1.10;;;;;;;9.25;100.00;93019.38;2097557;28;20028;-86
2021/07/01 02:08:09;;;;;;;0.80;0.80;;;;;;;9.26;100.00;93031.56;2089169;28;20023;-86
2021/07/01 02:09:10;;;;;;;1.00;1.00;;;;;;;9.29;100.00;93024.66;2081420;28;20172;-87
2021/07/01 02:10:13;;;;;;;3.22;0.93;;;;;;;9.26;100.00;93028.13;2095798;28;20024;-86
2021/07/01 02:11:14;;;;;;;4.40;0.93;;;;;;;9.26;100.00;93025.47;2098139;28;20078;-87
2021/07/01 02:12:14;;;;;;;1.15;1.05;;;;;;;9.28;100.00;93028.50;2092507;28;20025;-88
2021/07/01 02:13:15;;;;;;;1.00;0.85;;;;;;;9.28;100.00;93031.16;2097705;28;20020;-88
2021/07/01 02:14:18;;;;;;;2.85;1.00;;;;;;;9.32;100.00;93031.84;2089466;28;20078;-87
2021/07/01 02:15:22;;;;;;;0.70;0.70;;;;;;;9.32;100.00;93023.84;2090822;28;20100;-87
2021/07/01 02:16:22;;;;;;;1.00;1.00;;;;;;;9.31;100.00;93035.69;2093309;28;20032;-86
2021/07/01 02:17:24;;;;;;;1.00;1.00;;;;;;;9.41;100.00;93033.97;2089612;28;20055;-88
2021/07/01 02:18:24;;;;;;;0.95;0.90;;;;;;;9.36;100.00;93032.53;2081077;28;20098;-86
2021/07/01 02:19:25;;;;;;;2.20;1.05;;;;;;;9.35;100.00;93028.38;2089071;28;20095;-87
2021/07/01 02:20:28;;;;;;;0.95;0.95;;;;;;;9.35;100.00;93036.38;2106044;28;20035;-87
2021/07/01 02:21:28;;;;;;;1.00;1.00;;;;;;;9.35;100.00;93033.69;2081536;28;20029;-87
2021/07/01 02:22:29;;;;;;;1.20;1.20;;;;;;;9.33;100.00;93036.00;2089316;28;20021;-87
2021/07/01 02:23:30;;;;;;;1.40;1.10;;;;;;;9.35;100.00;93031.03;2088924;28;20021;-88
2021/07/01 02:24:30;;;;;;;0.93;0.93;;;;;;;9.37;100.00;93035.94;2082518;28;20056;-87
2021/07/01 02:25:32;;;;;;;0.90;0.90;;;;;;;9.36;100.00;93034.44;2092621;28;20059;-87
2021/07/01 02:26:33;;;;;;;0.90;0.90;;;;;;;9.38;100.00;93032.13;2106064;28;20514;-86
2021/07/01 02:27:34;;;;;;;1.10;1.00;;;;;;;9.36;100.00;93031.78;2089111;28;20115;-87
2021/07/01 02:28:35;;;;;;;1.08;1.08;;;;;;;9.36;100.00;93040.53;2089394;28;20082;-89
2021/07/01 02:29:36;;;;;;;0.90;0.90;;;;;;;9.36;100.00;93037.13;2089004;28;20477;-87
2021/07/01 02:30:37;;;;;;;1.25;1.25;;;;;;;9.38;100.00;93037.44;2097200;28;20784;-87
2021/07/01 02:31:38;;;;;;;1.20;1.10;;;;;;;9.42;100.00;93032.81;2089371;28;20032;-86
2021/07/01 02:32:38;;;;;;;1.27;1.10;;;;;;;9.38;100.00;93040.88;2096332;28;20103;-88
2021/07/01 02:33:39;;;;;;;1.17;1.10;;;;;;;9.39;100.00;93039.69;2097437;28;20076;-88
2021/07/01 02:34:40;;;;;;;1.10;1.10;;;;;;;9.43;100.00;93040.38;2089188;28;20024;-87
2021/07/01 02:35:41;;;;;;;1.17;1.10;;;;;;;9.42;100.00;93033.56;2090163;28;20078;-85
2021/07/01 02:36:42;;;;;;;1.20;1.20;;;;;;;9.41;100.00;93032.06;2089404;28;20513;-87
2021/07/01 02:37:44;;;;;;;3.40;1.48;;;;;;;9.46;100.00;93036.16;2097784;28;20446;-86
2021/07/01 02:38:45;;;;;;;1.30;1.20;;;;;;;9.45;100.00;93027.41;2089352;28;20520;-87
2021/07/01 02:39:46;;;;;;;0.95;0.95;;;;;;;9.47;100.00;93032.31;2089350;28;20032;-85
2021/07/01 02:40:47;;;;;;;1.85;1.00;;;;;;;9.50;100.00;93026.94;2097520;28;20024;-88
2021/07/01 02:41:49;;;;;;;1.15;1.15;;;;;;;9.49;100.00;93030.75;2097662;28;20381;-86
2021/07/01 02:42:49;;;;;;;2.25;1.10;;;;;;;9.50;100.00;93020.84;2089140;28;20029;-88
2021/07/01 02:43:50;;;;;;;1.20;1.10;;;;;;;9.50;100.00;93024.25;2097512;28;20024;-85
2021/07/01 02:44:51;;;;;;;1.15;1.05;;;;;;;9.51;100.00;93030.34;2090471;28;20370;-88
2021/07/01 02:45:52;;;;;;;1.00;1.00;;;;;;;9.51;100.00;93027.69;2080931;28;20047;-88
2021/07/01 02:46:53;;;;;;;1.00;0.93;;;;;;;9.46;100.00;93034.25;2089233;28;20040;-87
2021/07/01 02:47:54;;;;;;;1.77;1.20;;;;;;;9.52;100.00;93031.84;2097054;28;20072;-85
2021/07/01 02:48:55;;;;;;;1.27;1.20;;;;;;;9.59;100.00;93035.13;2089203;28;20370;-87
2021/07/01 02:49:56;;;;;;;1.13;1.13;;;;;;;9.61;100.00;93036.63;2089046;28;20421;-86
2021/07/01 02:50:56;;;;;;;2.78;1.60;;;;;;;9.59;100.00;93037.81;2097185;28;20028;-87
2021/07/01 02:51:57;;;;;;;1.73;1.17;;;;;;;9.60;100.00;93038.56;2097229;28;20017;-87
2021/07/01 02:52:58;;;;;;;1.30;1.20;;;;;;;9.58;100.00;93035.56;2097481;28;20394;-87
2021/07/01 02:53:58;;;;;;;1.45;1.35;;;;;;;9.58;100.00;93036.31;2097605;28;20028;-87
2021/07/01 02:54:59;;;;;;;1.45;1.35;;;;;;;9.62;100.00;93035.50;2098668;28;20047;-87
2021/07/01 02:56:00;;;;;;;1.52;1.42;;;;;;;9.61;100.00;93037.38;2088983;28;20028;-88
2021/07/01 02:57:01;;;;;;;1.33;1.23;;;;;;;9.61;100.00;93034.72;2089178;28;20473;-87
2021/07/01 02:58:03;;;;;;;1.73;1.50;;;;;;;9.61;100.00;93029.38;2089142;28;20448;-86
2021/07/01 02:59:04;;;;;;;1.25;1.15;;;;;;;9.54;100.00;93038.28;2097453;28;20395;-86
2021/07/01 03:00:06;;;;;;;1.80;1.48;;;;;;;9.57;100.00;93039.38;2102910;28;20055;-87
2021/07/01 03:01:07;;;;;;;1.95;1.67;;;;;;;9.56;100.00;93032.53;2099377;28;20016;-87
2021/07/01 03:02:08;;;;;;;1.80;1.38;;;;;;;9.63;100.00;93037.75;2090845;28;20031;-87
2021/07/01 03:03:08;;;;;;;1.58;1.48;;;;;;;9.51;100.00;93031.09;2099017;28;20504;-88
2021/07/01 03:04:10;;;;;;;1.92;1.77;;;;;;;9.53;100.00;93028.78;2107393;28;20055;-85
2021/07/01 03:05:11;;;;;;;5.50;2.33;;;;;;;9.54;100.00;93030.28;2107550;28;20028;-87
2021/07/01 03:06:11;;;;;;;1.60;1.50;;;;;;;9.69;100.00;93035.34;2088659;28;20087;-87
2021/07/01 03:07:12;;;;;;;2.17;1.60;;;;;;;9.70;100.00;93045.63;2098782;28;20024;-86
2021/07/01 03:08:13;;;;;;;1.60;1.50;;;;;;;9.67;100.00;93038.44;2098888;28;20025;-88
2021/07/01 03:09:13;;;;;;;2.22;1.65;;;;;;;9.60;100.00;93038.56;2090768;28;20029;-87
2021/07/01 03:10:14;;;;;;;2.00;1.90;;;;;;;9.69;100.00;93041.41;2099195;28;20032;-87
2021/07/01 03:11:15;;;;;;;1.70;1.60;;;;;;;9.67;100.00;93033.09;2090596;28;20112;-87
2021/07/01 03:12:15;;;;;;;3.72;1.60;;;;;;;9.67;100.00;93043.00;2090430;28;20048;-87
2021/07/01 03:13:16;;;;;;;2.33;1.70;;;;;;;9.68;100.00;93039.19;2099022;28;20056;-86
2021/07/01 03:14:17;;;;;;;3.35;2.10;;;;;;;9.60;100.00;93035.88;2099078;28;20082;-85
2021/07/01 03:15:18;;;;;;;1.90;1.80;;;;;;;9.63;100.00;93045.75;2096068;28;20535;-87
2021/07/01 03:16:19;;;;;;;1.90;1.80;;;;;;;9.66;100.00;93041.47;2097725;28;20119;-86
2021/07/01 03:17:20;;;;;;;5.95;1.98;;;;;;;9.66;100.00;93038.81;2099139;28;20035;-86
2021/07/01 03:18:21;;;;;;;2.13;1.98;;;;;;;9.71;100.00;93033.78;2098909;28;20473;-88
2021/07/01 03:19:21;;;;;;;3.10;1.95;;;;;;;9.69;100.00;93035.34;2098631;28;20028;-87
2021/07/01 03:20:22;;;;;;;2.13;2.00;;;;;;;9.65;100.00;93038.06;2098334;28;20035;-86
2021/07/01 03:21:24;;;;;;;2.63;2.40;;;;;;;9.58;100.00;93038.97;2099152;28;20051;-86
2021/07/01 03:22:24;;;;;;;2.13;2.03;;;;;;;9.58;100.00;93036.31;2090725;28;20039;-87
2021/07/01 03:23:25;;;;;;;2.17;2.08;;;;;;;9.61;100.00;93040.06;2090642;28;20029;-88
2021/07/01 03:24:26;;;;;;;2.55;2.25;;;;;;;9.59;100.00;93034.38;2098787;28;20071;-88
2021/07/01 03:25:26;;;;;;;2.50;2.30;;;;;;;9.59;100.00;93032.47;2090585;28;20112;-86
2021/07/01 03:26:27;;;;;;;6.68;2.75;;;;;;;9.67;100.00;93035.75;2082296;28;20036;-85
2021/07/01 03:27:28;;;;;;;3.08;2.50;;;;;;;9.68;100.00;93034.59;2090864;28;20028;-87
2021/07/01 03:28:29;;;;;;;3.30;2.17;;;;;;;9.70;100.00;93026.16;2086063;28;20532;-87
2021/07/01 03:29:30;;;;;;;2.08;1.98;;;;;;;9.71;100.00;93025.75;2090833;28;20713;-86
2021/07/01 03:30:31;;;;;;;2.40;2.20;;;;;;;9.73;100.00;93036.00;2098967;28;20112;-88
2021/07/01 03:31:32;;;;;;;2.50;2.30;;;;;;;9.75;100.00;93029.13;2090684;28;20025;-87
2021/07/01 03:32:32;;;;;;;2.97;2.10;;;;;;;9.72;100.00;93034.53;2098022;28;20037;-87
2021/07/01 03:33:34;;;;;;;2.20;1.90;;;;;;;9.76;100.00;93029.88;2091364;28;20465;-87
2021/07/01 03:34:34;;;;;;;4.10;2.05;;;;;;;9.77;100.00;93029.44;2099066;28;20556;-87
2021/07/01 03:35:35;;;;;;;2.40;2.20;;;;;;;9.76;100.00;93029.88;2090157;28;20020;-86
2021/07/01 03:36:36;;;;;;;2.72;2.50;;;;;;;9.76;100.00;93032.53;2082383;28;20070;-84
2021/07/01 03:37:36;;;;;;;4.20;2.42;;;;;;;9.76;100.00;93029.88;2086229;28;20029;-86
2021/07/01 03:38:38;;;;;;;5.65;2.40;;;;;;;9.78;100.00;93030.19;2098759;28;20017;-86
2021/07/01 03:39:39;;;;;;;3.58;2.30;;;;;;;9.78;100.00;93036.28;2090630;28;20021;-87
2021/07/01 03:40:40;;;;;;;2.80;2.60;;;;;;;9.77;100.00;93042.78;2090565;28;20049;-88
2021/07/01 03:41:40;;;;;;;3.83;2.58;;;;;;;9.82;100.00;93030.88;2090606;28;20075;-86
2021/07/01 03:42:41;;;;;;;2.67;2.47;;;;;;;9.78;100.00;93044.28;2090448;28;20473;-87
2021/07/01 03:43:46;;;;;;;2.50;2.30;;;;;;;9.71;100.00;93041.78;2098585;28;20029;-87
2021/07/01 03:44:47;;;;;;;2.80;2.60;;;;;;;9.77;100.00;93042.78;2107317;28;20020;-86
2021/07/01 03:45:48;;;;;;;4.93;2.70;;;;;;;9.75;100.00;93042.47;2090552;28;20385;-88
2021/07/01 03:46:48;;;;;;;3.72;3.08;;;;;;;9.75;100.00;93041.72;2090624;28;20021;-87
2021/07/01 03:47:49;;;;;;;2.60;2.40;;;;;;;9.72;100.00;93045.19;2098198;28;20052;-87
2021/07/01 03:48:50;;;;;;;2.85;2.65;;;;;;;9.81;100.00;93037.38;2098765;28;20032;-83
2021/07/01 03:49:50;;;;;;;2.83;2.63;;;;;;;9.89;100.00;93046.00;2090560;28;20029;-87
2021/07/01 03:50:51;;;;;;;2.78;2.45;;;;;;;9.88;100.00;93044.47;2107080;28;20027;-87
2021/07/01 03:51:52;;;;;;;2.70;2.50;;;;;;;9.95;100.00;93045.09;2107137;28;20031;-87
2021/07/01 03:52:53;;;;;;;2.78;2.53;;;;;;;9.86;100.00;93046.81;2098727;28;20028;-86
2021/07/01 03:53:53;;;;;;;2.80;2.60;;;;;;;9.84;100.00;93040.00;2081992;28;20029;-87
2021/07/01 03:54:54;;;;;;;2.88;2.67;;;;;;;9.84;100.00;93042.66;2098385;28;20020;-86
2021/07/01 03:55:54;;;;;;;3.22;2.53;;;;;;;9.84;100.00;93048.00;2090480;28;20493;-86
2021/07/01 03:56:57;;;;;;;2.85;2.63;;;;;;;9.88;100.00;93053.28;2090273;28;20483;-89
2021/07/01 03:57:58;;;;;;;3.00;2.70;;;;;;;9.96;100.00;93046.59;2082348;28;20013;-89
2021/07/01 03:58:59;;;;;;;2.33;2.22;;;;;;;9.84;100.00;93044.56;2094710;28;20054;-87
2021/07/01 04:00:02;;;;;;;2.75;2.55;;;;;;;9.82;100.00;93052.22;2098451;28;20054;-87
2021/07/01 04:01:03;;;;;;;3.30;2.95;;;;;;;9.88;100.00;93052.50;2082651;28;20371;-89
2021/07/01 04:02:04;;;;;;;3.30;3.00;;;;;;;9.88;100.00;93058.59;2090339;28;20025;-86
2021/07/01 04:03:05;;;;;;;3.17;2.92;;;;;;;9.79;100.00;93056.50;2098723;28;20047;-88
2021/07/01 04:04:06;;;;;;;3.08;2.75;;;;;;;9.71;100.00;93052.44;2098738;28;20036;-89
2021/07/01 04:05:07;;;;;;;3.80;2.75;;;;;;;9.74;100.00;93048.19;2098667;28;20112;-85
2021/07/01 04:06:08;;;;;;;3.00;2.80;;;;;;;9.74;100.00;93056.94;2098724;28;20452;-86
2021/07/01 04:07:09;;;;;;;3.30;3.05;;;;;;;9.82;100.00;93054.91;2090076;28;20155;-86
2021/07/01 04:08:09;;;;;;;2.75;2.55;;;;;;;9.86;100.00;93055.59;2098499;28;20081;-85
2021/07/01 04:09:10;;;;;;;2.80;2.60;;;;;;;9.88;100.00;93047.16;2098600;28;20685;-88
2021/07/01 04:10:15;;;;;;;3.10;2.83;;;;;;;9.85;100.00;93051.41;2098518;28;20024;-87
2021/07/01 04:11:15;;;;;;;2.83;2.50;;;;;;;9.81;100.00;93056.06;2091222;28;20473;-86
2021/07/01 04:12:16;;;;;;;3.10;2.80;;;;;;;9.82;100.00;93054.91;2089458;28;20032;-85
2021/07/01 04:13:17;;;;;;;3.10;2.90;;;;;;;9.79;100.00;93061.84;2098720;28;20028;-85
2021/07/01 04:14:18;;;;;;;2.65;2.47;;;;;;;9.78;100.00;93060.31;2098373;28;20032;-88
2021/07/01 04:15:18;;;;;;;4.25;3.15;;;;;;;9.75;100.00;93057.72;2098475;28;20147;-87
2021/07/01 04:16:19;;;;;;;3.40;2.90;;;;;;;9.68;100.00;93058.59;2098340;28;20075;-87
2021/07/01 04:17:20;;;;;;;3.15;2.78;;;;;;;9.75;100.00;93060.41;2082156;28;20029;-87
2021/07/01 04:18:21;;;;;;;3.17;2.92;;;;;;;9.81;100.00;93062.16;2082000;28;20025;-88
2021/07/01 04:19:22;;;;;;;4.50;3.33;;;;;;;9.78;100.00;93060.31;2090193;28;20032;-87
2021/07/01 04:20:22;;;;;;;3.10;2.90;;;;;;;9.76;100.00;93065.31;2098651;28;20029;-87
2021/07/01 04:21:27;;;;;;;3.15;2.67;;;;;;;9.84;100.00;93064.00;2090208;28;20095;-86
2021/07/01 04:22:28;;;;;;;2.95;2.75;;;;;;;9.82;100.00;93066.31;2099678;28;20023;-88
2021/07/01 04:23:29;;;;;;;3.70;2.90;;;;;;;9.83;100.00;93061.75;2098493;28;20025;-87
2021/07/01 04:24:30;;;;;;;4.43;3.03;;;;;;;9.83;100.00;93062.50;2098265;28;20123;-85
2021/07/01 04:25:31;;;;;;;2.92;2.72;;;;;;;9.80;100.00;93060.66;2098381;28;20575;-87
2021/07/01 04:26:32;;;;;;;3.20;2.92;;;;;;;9.79;100.00;93066.41;2098613;28;20021;-85
2021/07/01 04:27:33;;;;;;;3.85;2.75;;;;;;;9.72;100.00;93067.28;2090068;28;20036;-86
2021/07/01 04:28:34;;;;;;;5.60;3.30;;;;;;;9.74;100.00;93069.53;2082488;28;20470;-86
2021/07/01 04:29:35;;;;;;;3.08;2.88;;;;;;;9.78;100.00;93065.63;2090214;28;20037;-87
2021/07/01 04:30:36;;;;;;;3.42;3.13;;;;;;;9.81;100.00;93064.06;2098496;28;20028;-87
2021/07/01 04:31:36;;;;;;;3.10;2.90;;;;;;;9.80;100.00;93067.91;2114821;28;20031;-87
2021/07/01 04:32:37;;;;;;;2.80;2.60;;;;;;;9.75;100.00;93063.06;2106818;28;20162;-89
2021/07/01 04:33:38;;;;;;;2.80;2.60;;;;;;;9.83;100.00;93065.19;2090189;28;20017;-87
2021/07/01 04:34:38;;;;;;;4.65;3.00;;;;;;;9.87;100.00;93067.00;2088832;28;20020;-87
2021/07/01 04:35:39;;;;;;;3.30;3.08;;;;;;;9.86;100.00;93060.19;2087172;28;20025;-86
2021/07/01 04:36:40;;;;;;;3.15;2.85;;;;;;;9.89;100.00;93062.78;2089727;28;20112;-87
2021/07/01 04:37:40;;;;;;;3.15;2.90;;;;;;;9.91;100.00;93057.75;2096830;28;20061;-87
2021/07/01 04:38:41;;;;;;;3.00;2.80;;;;;;;9.93;100.00;93066.13;2090120;28;20032;-88
2021/07/01 04:39:42;;;;;;;3.33;3.03;;;;;;;9.93;100.00;93060.78;2091833;28;20470;-88
2021/07/01 04:40:43;;;;;;;3.17;2.97;;;;;;;9.93;100.00;93065.38;2090118;28;20028;-87
2021/07/01 04:41:44;;;;;;;2.90;2.70;;;;;;;10.00;100.00;93060.63;2090186;28;20029;-87
2021/07/01 04:42:45;;;;;;;3.28;3.03;;;;;;;9.99;100.00;93075.16;2098383;28;20408;-87
2021/07/01 04:43:46;;;;;;;3.30;3.00;;;;;;;10.01;100.00;93070.16;2083670;28;20032;-87
2021/07/01 04:44:47;;;;;;;2.72;2.53;;;;;;;10.05;100.00;93065.50;2090294;28;20121;-86
2021/07/01 04:45:47;;;;;;;3.03;2.70;;;;;;;10.04;100.00;93071.25;2090050;28;20060;-87
2021/07/01 04:46:48;;;;;;;3.08;2.88;;;;;;;10.03;100.00;93065.16;2089951;28;20032;-87
2021/07/01 04:47:49;;;;;;;3.22;2.92;;;;;;;9.98;100.00;93068.31;2089775;28;20053;-87
2021/07/01 04:48:51;;;;;;;2.78;2.58;;;;;;;9.93;100.00;93071.47;2106225;28;20112;-88
2021/07/01 04:49:52;;;;;;;3.13;2.83;;;;;;;9.97;100.00;93066.06;2098061;28;20024;-86